createdAt,value
2023-03-04T00:02:07.364Z,1.63
2023-03-04T00:04:34.061Z,1.72
2023-03-04T00:07:00.741Z,1.74
2023-03-04T00:09:27.407Z,1.84
2023-03-04T00:11:54.116Z,1.87
2023-03-04T00:14:21.037Z,1.94
2023-03-04T00:16:49.328Z,1.98
2023-03-04T00:19:15.966Z,2.00
2023-03-04T00:21:42.685Z,2.23
2023-03-04T00:24:09.274Z,2.05
2023-03-04T00:26:35.952Z,2.20
2023-03-04T00:29:02.576Z,2.25
2023-03-04T00:31:29.204Z,2.16
2023-03-04T00:33:55.746Z,2.32
2023-03-04T00:36:22.432Z,2.31
2023-03-04T00:38:49.042Z,2.49
2023-03-04T00:41:15.790Z,2.44
2023-03-04T00:43:42.401Z,2.47
2023-03-04T00:46:09.186Z,2.42
2023-03-04T00:48:35.859Z,2.42
2023-03-04T00:51:02.503Z,2.36
2023-03-04T00:53:29.173Z,2.41
2023-03-04T00:55:55.817Z,2.45
2023-03-04T00:58:22.626Z,2.53
2023-03-04T01:00:49.297Z,2.59
2023-03-04T01:03:15.982Z,2.52
2023-03-04T01:05:42.633Z,2.56
2023-03-04T01:08:09.291Z,2.51
2023-03-04T01:10:36.179Z,2.43
2023-03-04T01:13:02.791Z,2.50
2023-03-04T01:15:29.775Z,2.70
2023-03-04T01:17:56.613Z,2.76
2023-03-04T01:20:23.302Z,2.64
2023-03-04T01:22:49.937Z,2.82
2023-03-04T01:25:16.602Z,2.74
2023-03-04T01:27:43.266Z,2.80
2023-03-04T01:30:10.712Z,2.65
2023-03-04T01:32:37.419Z,2.54
2023-03-04T01:35:04.312Z,2.57
2023-03-04T01:37:30.887Z,2.50
2023-03-04T01:39:57.501Z,2.52
2023-03-04T01:42:26.528Z,2.54
2023-03-04T01:44:53.561Z,2.52
2023-03-04T01:47:23.707Z,2.56
2023-03-04T01:49:54.023Z,2.57
2023-03-04T01:52:20.872Z,2.56
2023-03-04T01:54:48.470Z,2.60
2023-03-04T01:57:20.236Z,2.65
2023-03-04T01:59:47.940Z,2.56
2023-03-04T02:02:14.810Z,2.57
2023-03-04T02:04:42.390Z,2.55
2023-03-04T02:07:09.146Z,2.54
2023-03-04T02:09:36.480Z,2.58
2023-03-04T02:12:03.127Z,2.62
2023-03-04T02:14:29.766Z,2.65
2023-03-04T02:16:56.454Z,2.61
2023-03-04T02:19:37.771Z,2.64
2023-03-04T02:22:04.537Z,2.62
2023-03-04T02:24:53.474Z,2.66
2023-03-04T02:27:22.036Z,2.66
2023-03-04T02:29:48.870Z,2.64
2023-03-04T02:32:16.628Z,2.63
2023-03-04T02:34:48.212Z,2.64
2023-03-04T02:37:15.312Z,2.73
2023-03-04T02:39:43.782Z,2.72
2023-03-04T02:42:10.946Z,2.76
2023-03-04T02:44:39.675Z,2.71
2023-03-04T02:47:09.606Z,2.67
2023-03-04T02:49:37.783Z,2.65
2023-03-04T02:52:19.212Z,2.64
2023-03-04T02:54:46.071Z,2.62
2023-03-04T02:57:14.056Z,2.63
2023-03-04T02:59:41.260Z,2.59
2023-03-04T03:02:08.660Z,2.61
2023-03-04T03:04:37.224Z,2.69
2023-03-04T03:07:04.366Z,2.75
2023-03-04T03:09:31.041Z,2.82
2023-03-04T03:11:57.723Z,2.81
2023-03-04T03:14:24.360Z,2.78
2023-03-04T03:16:50.940Z,2.81
2023-03-04T03:19:17.561Z,2.83
2023-03-04T03:21:44.382Z,2.87
2023-03-04T03:24:11.008Z,2.98
2023-03-04T03:26:37.689Z,2.85
2023-03-04T03:29:04.312Z,2.85
2023-03-04T03:31:31.080Z,2.88
2023-03-04T03:33:57.722Z,2.93
2023-03-04T03:36:25.040Z,3.00
2023-03-04T03:38:51.611Z,2.97
2023-03-04T03:41:18.210Z,2.95
2023-03-04T03:43:44.890Z,3.05
2023-03-04T03:46:11.616Z,3.05
2023-03-04T03:48:38.226Z,2.99
2023-03-04T03:51:05.121Z,2.97
2023-03-04T03:53:31.746Z,3.11
2023-03-04T03:55:59.253Z,3.12
2023-03-04T03:58:27.334Z,2.97
2023-03-04T04:00:55.835Z,2.96
2023-03-04T04:03:24.002Z,3.01
2023-03-04T04:05:50.583Z,3.15
2023-03-04T04:08:20.052Z,3.09
2023-03-04T04:10:46.774Z,3.14
2023-03-04T04:13:13.701Z,3.12
2023-03-04T04:15:40.497Z,3.09
2023-03-04T04:18:07.832Z,3.18
2023-03-04T04:20:35.111Z,3.12
2023-03-04T04:23:02.336Z,3.28
2023-03-04T04:25:29.153Z,3.24
2023-03-04T04:27:55.987Z,3.27
2023-03-04T04:30:22.663Z,3.28
2023-03-04T04:32:49.250Z,3.20
2023-03-04T04:35:16.052Z,3.31
2023-03-04T04:37:42.653Z,3.27
2023-03-04T04:40:10.109Z,3.43
2023-03-04T04:42:36.742Z,3.43
2023-03-04T04:45:03.904Z,3.38
2023-03-04T04:47:30.661Z,3.51
2023-03-04T04:49:57.236Z,3.49
2023-03-04T04:52:23.914Z,3.50
2023-03-04T04:54:50.582Z,3.30
2023-03-04T04:57:17.204Z,3.45
2023-03-04T04:59:43.782Z,3.46
2023-03-04T05:02:10.378Z,3.47
2023-03-04T05:04:37.005Z,3.37
2023-03-04T05:07:03.995Z,3.43
2023-03-04T05:09:30.952Z,3.41
2023-03-04T05:11:57.679Z,3.53
2023-03-04T05:14:24.558Z,3.59
2023-03-04T05:16:53.125Z,3.51
2023-03-04T05:19:21.060Z,3.61
2023-03-04T05:21:47.937Z,3.56
2023-03-04T05:24:14.622Z,3.45
2023-03-04T05:26:41.498Z,3.43
2023-03-04T05:29:08.759Z,3.43
2023-03-04T05:31:35.468Z,3.59
2023-03-04T05:34:02.242Z,3.54
2023-03-04T05:36:29.040Z,3.42
2023-03-04T05:38:55.776Z,3.43
2023-03-04T05:41:23.068Z,3.44
2023-03-04T05:43:50.414Z,3.48
2023-03-04T05:46:19.027Z,3.47
2023-03-04T05:48:45.747Z,3.41
2023-03-04T05:51:12.354Z,3.46
2023-03-04T05:53:40.436Z,3.51
2023-03-04T05:56:15.449Z,3.56
2023-03-04T05:58:43.157Z,3.50
2023-03-04T06:01:10.265Z,3.52
2023-03-04T06:03:37.255Z,3.59
2023-03-04T06:06:04.939Z,3.57
2023-03-04T06:08:31.878Z,3.59
2023-03-04T06:10:59.328Z,3.59
2023-03-04T06:13:26.436Z,3.65
2023-03-04T06:15:57.804Z,3.59
2023-03-04T06:18:26.059Z,3.74
2023-03-04T06:20:57.745Z,3.70
2023-03-04T06:23:24.471Z,3.69
2023-03-04T06:25:55.094Z,3.72
2023-03-04T06:28:22.010Z,3.77
2023-03-04T06:30:48.669Z,3.60
2023-03-04T06:33:15.671Z,3.53
2023-03-04T06:35:42.390Z,3.68
2023-03-04T06:38:09.042Z,3.73
2023-03-04T06:40:35.645Z,3.73
2023-03-04T06:43:03.228Z,3.85
2023-03-04T06:45:29.984Z,3.78
2023-03-04T06:47:56.840Z,3.67
2023-03-04T06:50:23.528Z,3.72
2023-03-04T06:52:50.199Z,3.70
2023-03-04T06:55:16.878Z,3.75
2023-03-04T06:57:43.502Z,3.80
2023-03-04T07:00:11.189Z,3.75
2023-03-04T07:02:37.836Z,3.76
2023-03-04T07:05:05.370Z,3.70
2023-03-04T07:07:32.554Z,3.81
2023-03-04T07:09:59.395Z,3.82
2023-03-04T07:12:26.180Z,3.89
2023-03-04T07:14:53.459Z,3.91
2023-03-04T07:17:20.203Z,3.85
2023-03-04T07:19:46.822Z,3.81
2023-03-04T07:22:13.439Z,3.84
2023-03-04T07:24:40.118Z,3.85
2023-03-04T07:27:06.793Z,3.89
2023-03-04T07:29:33.556Z,3.92
2023-03-04T07:32:00.307Z,3.88
2023-03-04T07:34:27.048Z,3.96
2023-03-04T07:36:54.208Z,3.92
2023-03-04T07:39:21.969Z,4.06
2023-03-04T07:41:48.657Z,3.98
2023-03-04T07:44:15.363Z,4.09
2023-03-04T07:46:42.503Z,4.09
2023-03-04T07:49:09.248Z,4.19
2023-03-04T07:51:36.106Z,4.15
2023-03-04T07:54:03.080Z,4.07
2023-03-04T07:56:32.300Z,4.11
2023-03-04T07:58:59.947Z,4.22
2023-03-04T08:01:30.144Z,4.22
2023-03-04T08:03:57.685Z,4.17
2023-03-04T08:06:26.952Z,4.23
2023-03-04T08:09:02.480Z,4.09
2023-03-04T08:11:31.409Z,4.33
2023-03-04T08:13:58.730Z,4.29
2023-03-04T08:16:26.109Z,4.29
2023-03-04T08:18:56.172Z,4.36
2023-03-04T08:21:23.818Z,4.40
2023-03-04T08:23:50.745Z,4.35
2023-03-04T08:26:29.406Z,4.48
2023-03-04T08:28:57.852Z,4.33
2023-03-04T08:31:24.895Z,4.31
2023-03-04T08:33:53.091Z,4.24
2023-03-04T08:36:20.859Z,4.28
2023-03-04T08:38:47.539Z,4.50
2023-03-04T08:41:15.578Z,4.41
2023-03-04T08:43:42.512Z,4.47
2023-03-04T08:46:09.299Z,4.61
2023-03-04T08:48:37.421Z,4.53
2023-03-04T08:51:09.160Z,4.51
2023-03-04T08:53:35.919Z,4.62
2023-03-04T08:56:02.580Z,4.63
2023-03-04T08:58:29.401Z,4.58
2023-03-04T09:00:56.038Z,4.65
2023-03-04T09:03:22.755Z,4.70
2023-03-04T09:05:49.555Z,4.63
2023-03-04T09:08:16.305Z,4.62
2023-03-04T09:10:43.675Z,4.68
2023-03-04T09:13:11.740Z,4.63
2023-03-04T09:15:39.904Z,4.67
2023-03-04T09:18:06.913Z,4.76
2023-03-04T09:20:33.769Z,4.84
2023-03-04T09:23:00.383Z,4.83
2023-03-04T09:25:27.463Z,4.94
2023-03-04T09:27:54.104Z,5.02
2023-03-04T09:30:21.276Z,5.06
2023-03-04T09:32:47.993Z,5.17
2023-03-04T09:35:14.761Z,5.24
2023-03-04T09:37:41.883Z,5.24
2023-03-04T09:40:10.130Z,5.35
2023-03-04T09:42:47.813Z,5.42
2023-03-04T09:45:21.581Z,5.44
2023-03-04T09:47:50.698Z,5.50
2023-03-04T09:50:18.332Z,5.47
2023-03-04T09:53:20.403Z,5.37
2023-03-04T09:55:51.192Z,5.41
2023-03-04T09:58:43.513Z,5.41
2023-03-04T10:01:35.463Z,5.43
2023-03-04T10:04:10.818Z,5.49
2023-03-04T10:06:38.170Z,5.64
2023-03-04T10:09:10.013Z,5.71
2023-03-04T10:11:49.717Z,5.80
2023-03-04T10:14:33.140Z,5.71
2023-03-04T10:17:09.587Z,5.67
2023-03-04T10:19:53.240Z,5.79
2023-03-04T10:22:26.513Z,5.71
2023-03-04T10:24:58.633Z,5.73
2023-03-04T10:27:25.882Z,5.77
2023-03-04T10:29:52.970Z,5.84
2023-03-04T10:32:20.815Z,5.66
2023-03-04T10:34:47.970Z,5.70
2023-03-04T10:37:14.548Z,5.71
2023-03-04T10:39:44.113Z,5.68
2023-03-04T10:42:38.123Z,5.75
2023-03-04T10:45:06.675Z,5.85
2023-03-04T10:47:34.760Z,5.81
2023-03-04T10:50:04.134Z,5.79
2023-03-04T10:52:33.195Z,5.74
2023-03-04T10:55:03.297Z,5.74
2023-03-04T10:57:38.494Z,5.82
2023-03-04T11:00:37.876Z,5.87
2023-03-04T11:03:31.930Z,5.89
2023-03-04T11:06:29.595Z,5.81
2023-03-04T11:08:59.148Z,5.81
2023-03-04T11:11:34.870Z,5.81
2023-03-04T11:14:06.478Z,5.91
2023-03-04T11:16:35.026Z,5.93
2023-03-04T11:19:11.322Z,5.94
2023-03-04T11:21:41.028Z,5.89
2023-03-04T11:24:27.491Z,5.91
2023-03-04T11:27:04.142Z,5.97
2023-03-04T11:29:38.999Z,5.94
2023-03-04T11:32:12.336Z,5.91
2023-03-04T11:34:54.904Z,5.93
2023-03-04T11:37:26.991Z,6.00
2023-03-04T11:40:25.836Z,6.02
2023-03-04T11:42:59.955Z,6.06
2023-03-04T11:45:50.585Z,6.04
2023-03-04T11:48:24.752Z,6.01
2023-03-04T11:50:54.880Z,6.03
2023-03-04T11:53:32.248Z,6.09
2023-03-04T11:56:25.075Z,6.06
2023-03-04T11:59:22.384Z,6.02
2023-03-04T12:02:14.596Z,6.20
2023-03-04T12:04:59.380Z,6.15
2023-03-04T12:08:00.249Z,6.09
2023-03-04T12:10:31.874Z,6.14
2023-03-04T12:13:36.615Z,6.11
2023-03-04T12:16:16.206Z,6.16
2023-03-04T12:19:04.943Z,6.22
2023-03-04T12:22:10.018Z,6.22
2023-03-04T12:24:49.230Z,6.19
2023-03-04T12:27:26.360Z,6.19
2023-03-04T12:30:06.563Z,6.24
2023-03-04T12:33:19.040Z,6.40
2023-03-04T12:36:04.701Z,6.35
2023-03-04T12:39:14.511Z,6.35
2023-03-04T12:42:17.100Z,6.23
2023-03-04T12:45:07.495Z,6.28
2023-03-04T12:47:47.227Z,6.36
2023-03-04T12:50:54.423Z,6.33
2023-03-04T12:53:50.830Z,6.36
2023-03-04T12:56:25.636Z,6.35
2023-03-04T12:58:53.207Z,6.41
2023-03-04T13:01:37.273Z,6.41
2023-03-04T13:04:09.598Z,6.41
2023-03-04T13:07:14.768Z,6.40
2023-03-04T13:09:58.481Z,6.36
2023-03-04T13:12:25.674Z,6.44
2023-03-04T13:15:32.578Z,6.37
2023-03-04T13:18:03.214Z,6.52
2023-03-04T13:20:36.393Z,6.57
2023-03-04T13:23:22.448Z,6.70
2023-03-04T13:26:19.099Z,6.65
2023-03-04T13:28:45.850Z,6.61
2023-03-04T13:31:22.381Z,6.57
2023-03-04T13:33:53.389Z,6.50
2023-03-04T13:36:31.579Z,6.57
2023-03-04T13:39:14.896Z,6.74
2023-03-04T13:41:49.043Z,6.66
2023-03-04T13:44:36.341Z,6.63
2023-03-04T13:47:34.908Z,6.74
2023-03-04T13:50:46.936Z,6.61
2023-03-04T13:53:37.865Z,6.66
2023-03-04T13:56:39.074Z,6.58
2023-03-04T13:59:39.440Z,6.53
2023-03-04T14:02:23.003Z,6.67
2023-03-04T14:05:00.964Z,6.71
2023-03-04T14:07:31.578Z,6.74
2023-03-04T14:10:00.823Z,6.78
2023-03-04T14:12:36.977Z,6.84
2023-03-04T14:15:06.739Z,6.81
2023-03-04T14:17:38.910Z,6.70
2023-03-04T14:20:24.423Z,6.79
2023-03-04T14:22:51.471Z,6.84
2023-03-04T14:25:38.396Z,6.79
2023-03-04T14:28:19.597Z,6.77
2023-03-04T14:30:54.064Z,6.70
2023-03-04T14:33:29.256Z,6.69
2023-03-04T14:35:58.917Z,6.66
2023-03-04T14:38:31.618Z,6.81
2023-03-04T14:41:12.432Z,6.73
2023-03-04T14:44:03.890Z,6.69
2023-03-04T14:46:35.013Z,6.71
2023-03-04T14:49:02.356Z,6.69
2023-03-04T14:51:38.877Z,6.77
2023-03-04T14:54:05.636Z,6.71
2023-03-04T14:56:35.191Z,6.77
2023-03-04T14:59:01.916Z,6.74
2023-03-04T15:01:34.999Z,6.62
2023-03-04T15:04:11.350Z,6.57
2023-03-04T15:06:40.563Z,6.56
2023-03-04T15:09:27.500Z,6.72
2023-03-04T15:12:07.544Z,6.73
2023-03-04T15:14:59.395Z,6.56
2023-03-04T15:17:37.754Z,6.52
2023-03-04T15:20:16.449Z,6.48
2023-03-04T15:22:59.351Z,6.48
2023-03-04T15:25:26.085Z,6.47
2023-03-04T15:27:54.302Z,6.60
2023-03-04T15:30:27.719Z,6.67
2023-03-04T15:32:56.055Z,6.59
2023-03-04T15:35:23.535Z,6.64
2023-03-04T15:37:52.735Z,6.57
2023-03-04T15:40:33.961Z,6.54
2023-03-04T15:43:02.396Z,6.64
2023-03-04T15:45:36.201Z,6.45
2023-03-04T15:48:08.047Z,6.57
2023-03-04T15:50:36.941Z,6.54
2023-03-04T15:53:08.189Z,6.41
2023-03-04T15:55:35.511Z,6.36
2023-03-04T15:58:04.260Z,6.42
2023-03-04T16:00:32.246Z,6.48
2023-03-04T16:02:58.911Z,6.38
2023-03-04T16:05:26.092Z,6.40
2023-03-04T16:07:52.873Z,6.37
2023-03-04T16:10:25.047Z,6.29
2023-03-04T16:12:53.404Z,6.30
2023-03-04T16:15:22.542Z,6.38
2023-03-04T16:17:49.412Z,6.32
2023-03-04T16:20:21.895Z,6.26
2023-03-04T16:22:51.030Z,6.29
2023-03-04T16:25:18.956Z,6.16
2023-03-04T16:27:45.978Z,6.21
2023-03-04T16:30:16.348Z,6.09
2023-03-04T16:32:43.458Z,6.12
2023-03-04T16:35:10.844Z,6.16
2023-03-04T16:37:38.203Z,6.06
2023-03-04T16:40:06.216Z,5.96
2023-03-04T16:42:33.372Z,6.00
2023-03-04T16:45:00.176Z,5.94
2023-03-04T16:47:27.932Z,6.10
2023-03-04T16:49:54.807Z,6.17
2023-03-04T16:52:25.977Z,6.07
2023-03-04T16:54:53.142Z,6.21
2023-03-04T16:57:19.932Z,6.23
2023-03-04T16:59:47.295Z,6.29
2023-03-04T17:02:19.578Z,6.18
2023-03-04T17:04:48.477Z,6.17
2023-03-04T17:07:15.297Z,6.05
2023-03-04T17:09:42.529Z,6.08
2023-03-04T17:12:11.240Z,6.15
2023-03-04T17:14:39.171Z,6.10
2023-03-04T17:17:06.602Z,6.08
2023-03-04T17:19:33.354Z,6.04
2023-03-04T17:22:01.049Z,5.98
2023-03-04T17:24:27.733Z,6.00
2023-03-04T17:26:54.317Z,5.95
2023-03-04T17:29:21.091Z,5.84
2023-03-04T17:31:47.829Z,5.83
2023-03-04T17:34:14.802Z,6.05
2023-03-04T17:36:41.483Z,5.88
2023-03-04T17:39:08.332Z,5.95
2023-03-04T17:41:36.297Z,5.79
2023-03-04T17:44:03.411Z,5.82
2023-03-04T17:46:30.246Z,5.72
2023-03-04T17:48:59.465Z,5.84
2023-03-04T17:51:35.619Z,5.70
2023-03-04T17:54:05.766Z,5.64
2023-03-04T17:56:33.044Z,5.70
2023-03-04T17:59:01.459Z,5.79
2023-03-04T18:01:28.682Z,5.81
2023-03-04T18:03:55.852Z,5.69
2023-03-04T18:06:25.355Z,5.73
2023-03-04T18:08:53.018Z,5.90
2023-03-04T18:11:24.009Z,5.85
2023-03-04T18:13:50.699Z,5.98
2023-03-04T18:16:23.726Z,6.11
2023-03-04T18:18:51.297Z,6.03
2023-03-04T18:21:18.941Z,6.11
2023-03-04T18:23:45.865Z,6.02
2023-03-04T18:26:12.713Z,6.14
2023-03-04T18:28:39.436Z,6.22
2023-03-04T18:31:06.244Z,6.29
2023-03-04T18:33:33.422Z,6.13
2023-03-04T18:36:08.182Z,6.18
2023-03-04T18:38:34.958Z,6.12
2023-03-04T18:41:04.586Z,6.04
2023-03-04T18:43:31.409Z,5.96
2023-03-04T18:46:08.997Z,5.82
2023-03-04T18:48:39.524Z,5.66
2023-03-04T18:51:06.178Z,5.70
2023-03-04T18:53:32.767Z,5.59
2023-03-04T18:56:06.851Z,5.53
2023-03-04T18:58:36.116Z,5.41
2023-03-04T19:01:05.392Z,5.51
2023-03-04T19:03:34.442Z,5.51
2023-03-04T19:06:01.733Z,5.44
2023-03-04T19:08:28.653Z,5.42
2023-03-04T19:10:57.106Z,5.31
2023-03-04T19:13:24.087Z,5.21
2023-03-04T19:15:51.715Z,5.17
2023-03-04T19:18:18.693Z,5.19
2023-03-04T19:20:45.406Z,5.05
2023-03-04T19:23:14.283Z,5.14
2023-03-04T19:25:41.397Z,5.09
2023-03-04T19:28:08.627Z,5.02
2023-03-04T19:30:40.330Z,4.99
2023-03-04T19:33:07.491Z,5.02
2023-03-04T19:35:34.442Z,5.06
2023-03-04T19:38:01.341Z,5.00
2023-03-04T19:40:28.659Z,4.91
2023-03-04T19:42:56.863Z,4.85
2023-03-04T19:45:25.091Z,4.98
2023-03-04T19:47:52.280Z,4.85
2023-03-04T19:50:19.368Z,4.88
2023-03-04T19:52:46.161Z,4.93
2023-03-04T19:55:13.152Z,4.98
2023-03-04T19:57:42.038Z,4.99
2023-03-04T20:00:10.821Z,4.88
2023-03-04T20:02:37.633Z,4.81
2023-03-04T20:05:05.479Z,5.02
2023-03-04T20:07:32.193Z,4.89
2023-03-04T20:09:58.981Z,4.93
2023-03-04T20:12:25.717Z,4.97
2023-03-04T20:14:52.411Z,4.77
2023-03-04T20:17:19.377Z,4.81
2023-03-04T20:19:46.337Z,4.88
2023-03-04T20:22:13.596Z,4.70
2023-03-04T20:24:40.232Z,4.85
2023-03-04T20:27:06.951Z,4.96
2023-03-04T20:29:34.156Z,4.95
2023-03-04T20:32:01.721Z,4.82
2023-03-04T20:34:28.378Z,4.81
2023-03-04T20:36:55.066Z,4.82
2023-03-04T20:39:29.246Z,4.90
2023-03-04T20:41:58.252Z,4.85
2023-03-04T20:44:25.226Z,4.67
2023-03-04T20:46:52.342Z,4.73
2023-03-04T20:49:27.279Z,4.73
2023-03-04T20:51:56.524Z,4.67
2023-03-04T20:54:23.601Z,4.77
2023-03-04T20:56:50.615Z,4.79
2023-03-04T20:59:17.574Z,4.73
2023-03-04T21:01:45.819Z,4.74
2023-03-04T21:04:12.541Z,4.72
2023-03-04T21:06:39.772Z,4.53
2023-03-04T21:09:09.219Z,4.49
2023-03-04T21:11:42.514Z,4.53
2023-03-04T21:14:24.570Z,4.51
2023-03-04T21:16:53.627Z,4.58
2023-03-04T21:19:23.335Z,4.55
2023-03-04T21:21:51.833Z,4.66
2023-03-04T21:24:24.399Z,4.55
2023-03-04T21:26:51.450Z,4.49
2023-03-04T21:29:20.890Z,4.48
2023-03-04T21:31:53.832Z,4.42
2023-03-04T21:34:28.180Z,4.32
2023-03-04T21:36:54.803Z,4.27
2023-03-04T21:39:24.521Z,4.40
2023-03-04T21:41:52.024Z,4.36
2023-03-04T21:44:27.802Z,4.44
2023-03-04T21:46:56.820Z,4.21
2023-03-04T21:49:26.588Z,4.28
2023-03-04T21:51:59.686Z,4.21
2023-03-04T21:54:47.841Z,4.31
2023-03-04T21:57:34.581Z,4.30
2023-03-04T22:00:22.259Z,4.30
2023-03-04T22:02:56.317Z,4.23
2023-03-04T22:05:23.690Z,4.26
2023-03-04T22:07:58.845Z,4.45
2023-03-04T22:10:26.343Z,4.46
2023-03-04T22:12:53.663Z,4.46
2023-03-04T22:15:33.386Z,4.39
2023-03-04T22:18:20.283Z,4.26
2023-03-04T22:21:10.784Z,4.25
2023-03-04T22:23:57.500Z,4.30
2023-03-04T22:26:33.165Z,4.29
2023-03-04T22:29:04.643Z,4.41
2023-03-04T22:31:33.315Z,4.36
2023-03-04T22:34:02.366Z,4.35
2023-03-04T22:36:31.971Z,4.27
2023-03-04T22:38:58.738Z,4.13
2023-03-04T22:41:25.484Z,4.32
2023-03-04T22:43:52.287Z,4.18
2023-03-04T22:46:28.441Z,4.28
2023-03-04T22:49:00.483Z,4.25
2023-03-04T22:51:28.257Z,4.29
2023-03-04T22:53:55.922Z,4.26
2023-03-04T22:56:25.771Z,4.33
2023-03-04T22:58:53.424Z,4.43
2023-03-04T23:01:21.955Z,4.35
2023-03-04T23:03:49.360Z,4.29
2023-03-04T23:06:36.608Z,4.29
2023-03-04T23:09:04.536Z,4.19
2023-03-04T23:11:35.567Z,4.20
2023-03-04T23:14:06.620Z,4.03
2023-03-04T23:16:37.320Z,4.14
2023-03-04T23:19:05.325Z,4.12
2023-03-04T23:21:37.039Z,4.34
2023-03-04T23:24:05.482Z,4.26
2023-03-04T23:26:35.144Z,4.16
2023-03-04T23:29:04.027Z,4.18
2023-03-04T23:31:32.848Z,4.11
2023-03-04T23:34:00.081Z,4.27
2023-03-04T23:36:29.827Z,4.23
2023-03-04T23:38:57.137Z,4.25
2023-03-04T23:41:27.683Z,4.20
2023-03-04T23:43:56.926Z,4.28
2023-03-04T23:46:24.516Z,4.07
2023-03-04T23:48:52.520Z,4.10
2023-03-04T23:51:21.543Z,4.06
2023-03-04T23:53:48.592Z,4.12
2023-03-04T23:56:18.399Z,4.07
2023-03-04T23:58:46.063Z,3.92
